sensor_id;sensor_type;location;lat;lon;timestamp;temperature;humidity
38684;DHT22;24910;53.248;-6.134;2023-05-17T00:01:03;14.30;77.30
38684;DHT22;24910;53.248;-6.134;2023-05-17T00:03:33;14.30;77.30
38684;DHT22;24910;53.248;-6.134;2023-05-17T00:06:02;14.20;77.30
38684;DHT22;24910;53.248;-6.134;2023-05-17T00:08:32;14.20;77.30
38684;DHT22;24910;53.248;-6.134;2023-05-17T00:11:01;14.20;77.30
38684;DHT22;24910;53.248;-6.134;2023-05-17T00:13:30;14.20;77.30
38684;DHT22;24910;53.248;-6.134;2023-05-17T00:15:59;14.20;77.40
38684;DHT22;24910;53.248;-6.134;2023-05-17T00:18:28;14.20;77.50
38684;DHT22;24910;53.248;-6.134;2023-05-17T00:20:59;14.20;77.50
38684;DHT22;24910;53.248;-6.134;2023-05-17T00:23:28;14.10;77.40
38684;DHT22;24910;53.248;-6.134;2023-05-17T00:25:57;14.10;77.50
38684;DHT22;24910;53.248;-6.134;2023-05-17T00:28:27;14.10;77.50
38684;DHT22;24910;53.248;-6.134;2023-05-17T00:30:56;14.10;77.40
38684;DHT22;24910;53.248;-6.134;2023-05-17T00:33:26;14.10;77.40
38684;DHT22;24910;53.248;-6.134;2023-05-17T00:35:55;14.00;77.20
38684;DHT22;24910;53.248;-6.134;2023-05-17T00:38:25;14.00;77.10
38684;DHT22;24910;53.248;-6.134;2023-05-17T00:40:54;14.00;77.10
38684;DHT22;24910;53.248;-6.134;2023-05-17T00:43:23;14.00;77.10
38684;DHT22;24910;53.248;-6.134;2023-05-17T00:45:53;13.90;77.20
38684;DHT22;24910;53.248;-6.134;2023-05-17T00:48:22;13.90;77.30
38684;DHT22;24910;53.248;-6.134;2023-05-17T00:50:53;13.80;77.30
38684;DHT22;24910;53.248;-6.134;2023-05-17T00:53:25;13.80;77.30
38684;DHT22;24910;53.248;-6.134;2023-05-17T00:55:55;13.80;77.30
38684;DHT22;24910;53.248;-6.134;2023-05-17T00:58:24;13.80;77.30
38684;DHT22;24910;53.248;-6.134;2023-05-17T01:00:54;13.70;77.30
38684;DHT22;24910;53.248;-6.134;2023-05-17T01:03:23;13.70;77.40
38684;DHT22;24910;53.248;-6.134;2023-05-17T01:05:52;13.60;77.40
38684;DHT22;24910;53.248;-6.134;2023-05-17T01:08:21;13.60;77.50
38684;DHT22;24910;53.248;-6.134;2023-05-17T01:11:00;13.60;77.60
38684;DHT22;24910;53.248;-6.134;2023-05-17T01:13:41;13.60;77.50
38684;DHT22;24910;53.248;-6.134;2023-05-17T01:16:17;13.60;77.40
38684;DHT22;24910;53.248;-6.134;2023-05-17T01:18:51;13.60;77.40
38684;DHT22;24910;53.248;-6.134;2023-05-17T01:21:33;13.50;77.40
38684;DHT22;24910;53.248;-6.134;2023-05-17T01:24:16;13.50;77.40
38684;DHT22;24910;53.248;-6.134;2023-05-17T01:26:52;13.50;77.60
38684;DHT22;24910;53.248;-6.134;2023-05-17T01:29:24;13.50;77.50
38684;DHT22;24910;53.248;-6.134;2023-05-17T01:31:55;13.40;77.50
38684;DHT22;24910;53.248;-6.134;2023-05-17T01:34:25;13.40;77.50
38684;DHT22;24910;53.248;-6.134;2023-05-17T01:36:55;13.40;77.60
38684;DHT22;24910;53.248;-6.134;2023-05-17T01:39:25;13.40;77.60
38684;DHT22;24910;53.248;-6.134;2023-05-17T01:42:03;13.40;77.60
38684;DHT22;24910;53.248;-6.134;2023-05-17T01:44:39;13.40;77.60
38684;DHT22;24910;53.248;-6.134;2023-05-17T01:47:18;13.30;77.60
38684;DHT22;24910;53.248;-6.134;2023-05-17T01:49:52;13.20;77.50
38684;DHT22;24910;53.248;-6.134;2023-05-17T01:52:27;13.30;77.50
38684;DHT22;24910;53.248;-6.134;2023-05-17T01:55:05;13.20;77.40
38684;DHT22;24910;53.248;-6.134;2023-05-17T01:57:39;13.20;77.40
38684;DHT22;24910;53.248;-6.134;2023-05-17T02:00:12;13.20;77.40
38684;DHT22;24910;53.248;-6.134;2023-05-17T02:02:43;13.20;77.40
38684;DHT22;24910;53.248;-6.134;2023-05-17T02:05:13;13.20;77.40
38684;DHT22;24910;53.248;-6.134;2023-05-17T02:07:42;13.20;77.50
38684;DHT22;24910;53.248;-6.134;2023-05-17T02:10:12;13.20;77.50
38684;DHT22;24910;53.248;-6.134;2023-05-17T02:12:44;13.30;77.50
38684;DHT22;24910;53.248;-6.134;2023-05-17T02:15:13;13.30;77.40
38684;DHT22;24910;53.248;-6.134;2023-05-17T02:17:43;13.30;77.30
38684;DHT22;24910;53.248;-6.134;2023-05-17T02:20:14;13.20;77.20
38684;DHT22;24910;53.248;-6.134;2023-05-17T02:22:43;13.30;77.10
38684;DHT22;24910;53.248;-6.134;2023-05-17T02:25:13;13.30;77.00
38684;DHT22;24910;53.248;-6.134;2023-05-17T02:27:43;13.20;77.00
38684;DHT22;24910;53.248;-6.134;2023-05-17T02:30:12;13.20;77.00
38684;DHT22;24910;53.248;-6.134;2023-05-17T02:32:44;13.20;77.00
38684;DHT22;24910;53.248;-6.134;2023-05-17T02:35:14;13.20;77.10
38684;DHT22;24910;53.248;-6.134;2023-05-17T02:37:43;13.10;77.10
38684;DHT22;24910;53.248;-6.134;2023-05-17T02:40:12;13.20;77.20
38684;DHT22;24910;53.248;-6.134;2023-05-17T02:42:43;13.20;77.10
38684;DHT22;24910;53.248;-6.134;2023-05-17T02:45:12;13.20;77.20
38684;DHT22;24910;53.248;-6.134;2023-05-17T02:47:41;13.20;77.20
38684;DHT22;24910;53.248;-6.134;2023-05-17T02:50:10;13.10;77.20
38684;DHT22;24910;53.248;-6.134;2023-05-17T02:52:39;13.10;77.20
38684;DHT22;24910;53.248;-6.134;2023-05-17T02:55:09;13.10;77.20
38684;DHT22;24910;53.248;-6.134;2023-05-17T02:57:38;13.00;77.20
38684;DHT22;24910;53.248;-6.134;2023-05-17T03:00:09;13.00;77.20
38684;DHT22;24910;53.248;-6.134;2023-05-17T03:02:39;13.00;77.10
38684;DHT22;24910;53.248;-6.134;2023-05-17T03:05:08;13.00;77.10
38684;DHT22;24910;53.248;-6.134;2023-05-17T03:07:41;13.00;77.20
38684;DHT22;24910;53.248;-6.134;2023-05-17T03:10:11;12.90;77.20
38684;DHT22;24910;53.248;-6.134;2023-05-17T03:12:43;12.90;77.40
38684;DHT22;24910;53.248;-6.134;2023-05-17T03:15:16;12.80;77.50
38684;DHT22;24910;53.248;-6.134;2023-05-17T03:17:46;12.80;77.60
38684;DHT22;24910;53.248;-6.134;2023-05-17T03:20:17;12.80;77.70
38684;DHT22;24910;53.248;-6.134;2023-05-17T03:22:48;12.80;77.80
38684;DHT22;24910;53.248;-6.134;2023-05-17T03:25:17;12.80;77.80
38684;DHT22;24910;53.248;-6.134;2023-05-17T03:27:46;12.80;77.60
38684;DHT22;24910;53.248;-6.134;2023-05-17T03:30:17;12.70;77.70
38684;DHT22;24910;53.248;-6.134;2023-05-17T03:32:47;12.70;77.70
38684;DHT22;24910;53.248;-6.134;2023-05-17T03:35:18;12.70;77.80
38684;DHT22;24910;53.248;-6.134;2023-05-17T03:37:51;12.70;78.00
38684;DHT22;24910;53.248;-6.134;2023-05-17T03:40:21;12.70;78.10
38684;DHT22;24910;53.248;-6.134;2023-05-17T03:42:51;12.70;78.10
38684;DHT22;24910;53.248;-6.134;2023-05-17T03:45:22;12.70;78.10
38684;DHT22;24910;53.248;-6.134;2023-05-17T03:47:51;12.70;78.10
38684;DHT22;24910;53.248;-6.134;2023-05-17T03:50:20;12.70;78.00
38684;DHT22;24910;53.248;-6.134;2023-05-17T03:52:50;12.70;78.10
38684;DHT22;24910;53.248;-6.134;2023-05-17T03:55:19;12.70;78.10
38684;DHT22;24910;53.248;-6.134;2023-05-17T03:57:49;12.70;78.30
38684;DHT22;24910;53.248;-6.134;2023-05-17T04:00:18;12.70;78.30
38684;DHT22;24910;53.248;-6.134;2023-05-17T04:02:53;12.60;78.30
38684;DHT22;24910;53.248;-6.134;2023-05-17T04:05:22;12.60;78.30
38684;DHT22;24910;53.248;-6.134;2023-05-17T04:07:53;12.60;78.30
38684;DHT22;24910;53.248;-6.134;2023-05-17T04:10:22;12.60;78.40
38684;DHT22;24910;53.248;-6.134;2023-05-17T04:12:51;12.60;78.50
38684;DHT22;24910;53.248;-6.134;2023-05-17T04:15:20;12.60;78.70
38684;DHT22;24910;53.248;-6.134;2023-05-17T04:17:49;12.50;78.80
38684;DHT22;24910;53.248;-6.134;2023-05-17T04:20:20;12.50;79.00
38684;DHT22;24910;53.248;-6.134;2023-05-17T04:22:49;12.50;79.10
38684;DHT22;24910;53.248;-6.134;2023-05-17T04:25:19;12.50;79.10
38684;DHT22;24910;53.248;-6.134;2023-05-17T04:27:49;12.60;79.10
38684;DHT22;24910;53.248;-6.134;2023-05-17T04:30:18;12.60;79.10
38684;DHT22;24910;53.248;-6.134;2023-05-17T04:32:50;12.60;79.10
38684;DHT22;24910;53.248;-6.134;2023-05-17T04:35:21;12.50;79.20
38684;DHT22;24910;53.248;-6.134;2023-05-17T04:37:52;12.50;79.20
38684;DHT22;24910;53.248;-6.134;2023-05-17T04:40:22;12.50;79.20
38684;DHT22;24910;53.248;-6.134;2023-05-17T04:42:51;12.50;79.30
38684;DHT22;24910;53.248;-6.134;2023-05-17T04:45:20;12.50;79.40
38684;DHT22;24910;53.248;-6.134;2023-05-17T04:47:50;12.40;79.60
38684;DHT22;24910;53.248;-6.134;2023-05-17T04:50:22;12.40;79.60
38684;DHT22;24910;53.248;-6.134;2023-05-17T04:52:51;12.50;79.60
38684;DHT22;24910;53.248;-6.134;2023-05-17T04:55:21;12.50;79.60
38684;DHT22;24910;53.248;-6.134;2023-05-17T04:57:50;12.50;79.60
38684;DHT22;24910;53.248;-6.134;2023-05-17T05:00:19;12.50;79.60
38684;DHT22;24910;53.248;-6.134;2023-05-17T05:02:58;12.50;79.60
38684;DHT22;24910;53.248;-6.134;2023-05-17T05:05:28;12.50;79.60
38684;DHT22;24910;53.248;-6.134;2023-05-17T05:07:58;12.50;79.60
38684;DHT22;24910;53.248;-6.134;2023-05-17T05:10:28;12.60;79.50
38684;DHT22;24910;53.248;-6.134;2023-05-17T05:12:57;12.60;79.60
38684;DHT22;24910;53.248;-6.134;2023-05-17T05:15:27;12.60;79.70
38684;DHT22;24910;53.248;-6.134;2023-05-17T05:17:59;12.70;79.70
38684;DHT22;24910;53.248;-6.134;2023-05-17T05:20:31;12.70;79.70
38684;DHT22;24910;53.248;-6.134;2023-05-17T05:23:02;12.70;79.70
38684;DHT22;24910;53.248;-6.134;2023-05-17T05:25:33;12.80;79.80
38684;DHT22;24910;53.248;-6.134;2023-05-17T05:28:03;12.80;79.80
38684;DHT22;24910;53.248;-6.134;2023-05-17T05:30:34;12.90;79.90
38684;DHT22;24910;53.248;-6.134;2023-05-17T05:33:04;12.90;79.90
38684;DHT22;24910;53.248;-6.134;2023-05-17T05:35:36;12.90;79.90
38684;DHT22;24910;53.248;-6.134;2023-05-17T05:38:05;12.90;80.00
38684;DHT22;24910;53.248;-6.134;2023-05-17T05:40:35;13.00;80.10
38684;DHT22;24910;53.248;-6.134;2023-05-17T05:43:04;13.00;80.10
38684;DHT22;24910;53.248;-6.134;2023-05-17T05:45:33;13.00;80.20
38684;DHT22;24910;53.248;-6.134;2023-05-17T05:48:03;13.10;80.30
38684;DHT22;24910;53.248;-6.134;2023-05-17T05:50:37;13.10;80.30
38684;DHT22;24910;53.248;-6.134;2023-05-17T05:53:10;13.20;80.40
38684;DHT22;24910;53.248;-6.134;2023-05-17T05:55:50;13.30;80.50
38684;DHT22;24910;53.248;-6.134;2023-05-17T05:58:20;13.30;80.50
38684;DHT22;24910;53.248;-6.134;2023-05-17T06:00:50;13.40;80.70
38684;DHT22;24910;53.248;-6.134;2023-05-17T06:03:19;13.40;80.70
38684;DHT22;24910;53.248;-6.134;2023-05-17T06:05:49;13.50;80.80
38684;DHT22;24910;53.248;-6.134;2023-05-17T06:08:19;13.60;81.00
38684;DHT22;24910;53.248;-6.134;2023-05-17T06:10:48;13.70;81.00
38684;DHT22;24910;53.248;-6.134;2023-05-17T06:13:17;13.70;81.00
38684;DHT22;24910;53.248;-6.134;2023-05-17T06:15:46;13.80;81.10
38684;DHT22;24910;53.248;-6.134;2023-05-17T06:18:15;13.80;81.00
38684;DHT22;24910;53.248;-6.134;2023-05-17T06:20:45;14.00;81.00
38684;DHT22;24910;53.248;-6.134;2023-05-17T06:23:16;14.10;80.90
38684;DHT22;24910;53.248;-6.134;2023-05-17T06:25:45;14.10;80.80
38684;DHT22;24910;53.248;-6.134;2023-05-17T06:28:14;14.20;80.70
38684;DHT22;24910;53.248;-6.134;2023-05-17T06:30:43;14.20;80.50
38684;DHT22;24910;53.248;-6.134;2023-05-17T06:33:14;14.40;80.50
38684;DHT22;24910;53.248;-6.134;2023-05-17T06:35:43;14.50;80.30
38684;DHT22;24910;53.248;-6.134;2023-05-17T06:38:25;14.70;80.20
38684;DHT22;24910;53.248;-6.134;2023-05-17T06:40:54;14.90;79.80
38684;DHT22;24910;53.248;-6.134;2023-05-17T06:43:25;15.00;79.50
38684;DHT22;24910;53.248;-6.134;2023-05-17T06:45:54;15.20;79.10
38684;DHT22;24910;53.248;-6.134;2023-05-17T06:48:23;15.30;78.60
38684;DHT22;24910;53.248;-6.134;2023-05-17T06:50:52;15.50;78.40
38684;DHT22;24910;53.248;-6.134;2023-05-17T06:53:21;15.60;77.90
38684;DHT22;24910;53.248;-6.134;2023-05-17T06:55:52;15.80;77.50
38684;DHT22;24910;53.248;-6.134;2023-05-17T06:58:21;15.90;77.10
38684;DHT22;24910;53.248;-6.134;2023-05-17T07:00:50;16.00;76.50
38684;DHT22;24910;53.248;-6.134;2023-05-17T07:03:20;16.10;75.80
38684;DHT22;24910;53.248;-6.134;2023-05-17T07:05:49;16.20;75.40
38684;DHT22;24910;53.248;-6.134;2023-05-17T07:08:18;16.30;76.00
38684;DHT22;24910;53.248;-6.134;2023-05-17T07:10:51;16.40;74.50
38684;DHT22;24910;53.248;-6.134;2023-05-17T07:13:24;16.50;73.90
38684;DHT22;24910;53.248;-6.134;2023-05-17T07:15:53;16.60;73.40
38684;DHT22;24910;53.248;-6.134;2023-05-17T07:18:22;16.70;73.30
38684;DHT22;24910;53.248;-6.134;2023-05-17T07:20:52;16.80;72.70
38684;DHT22;24910;53.248;-6.134;2023-05-17T07:23:21;16.90;72.50
38684;DHT22;24910;53.248;-6.134;2023-05-17T07:25:51;17.00;72.30
38684;DHT22;24910;53.248;-6.134;2023-05-17T07:28:21;17.20;72.40
38684;DHT22;24910;53.248;-6.134;2023-05-17T07:30:50;17.20;72.10
38684;DHT22;24910;53.248;-6.134;2023-05-17T07:33:19;17.30;71.90
38684;DHT22;24910;53.248;-6.134;2023-05-17T07:35:48;17.40;71.90
38684;DHT22;24910;53.248;-6.134;2023-05-17T07:38:17;17.40;71.70
38684;DHT22;24910;53.248;-6.134;2023-05-17T07:40:46;17.50;71.10
38684;DHT22;24910;53.248;-6.134;2023-05-17T07:43:17;17.60;70.50
38684;DHT22;24910;53.248;-6.134;2023-05-17T07:45:49;17.70;69.90
38684;DHT22;24910;53.248;-6.134;2023-05-17T07:48:18;17.70;69.60
38684;DHT22;24910;53.248;-6.134;2023-05-17T07:50:47;17.70;69.30
38684;DHT22;24910;53.248;-6.134;2023-05-17T07:53:16;17.80;69.30
38684;DHT22;24910;53.248;-6.134;2023-05-17T07:55:45;17.90;69.20
38684;DHT22;24910;53.248;-6.134;2023-05-17T07:58:14;17.90;69.50
38684;DHT22;24910;53.248;-6.134;2023-05-17T08:00:48;18.00;69.40
38684;DHT22;24910;53.248;-6.134;2023-05-17T08:03:17;18.10;69.00
38684;DHT22;24910;53.248;-6.134;2023-05-17T08:05:46;18.10;69.10
38684;DHT22;24910;53.248;-6.134;2023-05-17T08:08:15;18.30;69.10
38684;DHT22;24910;53.248;-6.134;2023-05-17T08:10:44;18.40;68.50
38684;DHT22;24910;53.248;-6.134;2023-05-17T08:13:13;18.40;68.00
38684;DHT22;24910;53.248;-6.134;2023-05-17T08:15:43;18.50;67.80
38684;DHT22;24910;53.248;-6.134;2023-05-17T08:18:13;18.60;67.60
38684;DHT22;24910;53.248;-6.134;2023-05-17T08:20:42;18.60;67.10
38684;DHT22;24910;53.248;-6.134;2023-05-17T08:23:13;18.60;66.90
38684;DHT22;24910;53.248;-6.134;2023-05-17T08:25:42;18.60;66.90
38684;DHT22;24910;53.248;-6.134;2023-05-17T08:28:11;18.60;66.80
38684;DHT22;24910;53.248;-6.134;2023-05-17T08:30:40;18.60;67.00
38684;DHT22;24910;53.248;-6.134;2023-05-17T08:33:09;18.50;66.80
38684;DHT22;24910;53.248;-6.134;2023-05-17T08:35:40;18.50;66.60
38684;DHT22;24910;53.248;-6.134;2023-05-17T08:38:09;18.40;66.30
38684;DHT22;24910;53.248;-6.134;2023-05-17T08:40:38;18.30;66.20
38684;DHT22;24910;53.248;-6.134;2023-05-17T08:43:08;18.10;66.10
38684;DHT22;24910;53.248;-6.134;2023-05-17T08:45:39;18.00;66.20
38684;DHT22;24910;53.248;-6.134;2023-05-17T08:48:08;17.90;66.40
38684;DHT22;24910;53.248;-6.134;2023-05-17T08:50:40;17.90;66.70
38684;DHT22;24910;53.248;-6.134;2023-05-17T08:53:09;17.90;66.90
38684;DHT22;24910;53.248;-6.134;2023-05-17T08:55:41;17.90;67.10
38684;DHT22;24910;53.248;-6.134;2023-05-17T08:58:14;18.00;67.60
38684;DHT22;24910;53.248;-6.134;2023-05-17T09:00:45;18.00;67.40
38684;DHT22;24910;53.248;-6.134;2023-05-17T09:03:16;18.10;67.60
38684;DHT22;24910;53.248;-6.134;2023-05-17T09:05:49;18.10;67.60
38684;DHT22;24910;53.248;-6.134;2023-05-17T09:08:20;18.10;67.20
38684;DHT22;24910;53.248;-6.134;2023-05-17T09:10:49;18.10;67.30
38684;DHT22;24910;53.248;-6.134;2023-05-17T09:13:19;18.10;67.20
38684;DHT22;24910;53.248;-6.134;2023-05-17T09:15:48;18.10;67.20
38684;DHT22;24910;53.248;-6.134;2023-05-17T09:18:17;18.00;67.10
38684;DHT22;24910;53.248;-6.134;2023-05-17T09:20:50;18.00;67.10
38684;DHT22;24910;53.248;-6.134;2023-05-17T09:23:20;18.00;67.00
38684;DHT22;24910;53.248;-6.134;2023-05-17T09:25:50;18.10;67.30
38684;DHT22;24910;53.248;-6.134;2023-05-17T09:28:19;18.20;67.30
38684;DHT22;24910;53.248;-6.134;2023-05-17T09:30:48;18.30;67.10
38684;DHT22;24910;53.248;-6.134;2023-05-17T09:33:21;18.30;67.00
38684;DHT22;24910;53.248;-6.134;2023-05-17T09:35:52;18.40;66.80
38684;DHT22;24910;53.248;-6.134;2023-05-17T09:38:24;18.40;66.70
38684;DHT22;24910;53.248;-6.134;2023-05-17T09:40:54;18.30;66.30
38684;DHT22;24910;53.248;-6.134;2023-05-17T09:43:24;18.40;66.20
38684;DHT22;24910;53.248;-6.134;2023-05-17T09:45:57;18.50;66.20
38684;DHT22;24910;53.248;-6.134;2023-05-17T09:48:26;18.50;66.00
38684;DHT22;24910;53.248;-6.134;2023-05-17T09:50:57;18.50;65.70
38684;DHT22;24910;53.248;-6.134;2023-05-17T09:53:27;18.50;65.20
38684;DHT22;24910;53.248;-6.134;2023-05-17T09:55:57;18.50;65.20
38684;DHT22;24910;53.248;-6.134;2023-05-17T09:58:27;18.50;65.50
38684;DHT22;24910;53.248;-6.134;2023-05-17T10:01:00;18.50;66.10
38684;DHT22;24910;53.248;-6.134;2023-05-17T10:03:32;18.60;66.30
38684;DHT22;24910;53.248;-6.134;2023-05-17T10:06:06;18.70;66.70
38684;DHT22;24910;53.248;-6.134;2023-05-17T10:08:50;18.90;66.80
38684;DHT22;24910;53.248;-6.134;2023-05-17T10:11:23;18.90;66.30
38684;DHT22;24910;53.248;-6.134;2023-05-17T10:14:01;18.90;66.30
38684;DHT22;24910;53.248;-6.134;2023-05-17T10:16:33;18.70;66.30
38684;DHT22;24910;53.248;-6.134;2023-05-17T10:19:02;18.80;66.80
38684;DHT22;24910;53.248;-6.134;2023-05-17T10:21:33;18.80;66.80
38684;DHT22;24910;53.248;-6.134;2023-05-17T10:24:05;18.90;66.80
38684;DHT22;24910;53.248;-6.134;2023-05-17T10:26:35;19.00;66.70
38684;DHT22;24910;53.248;-6.134;2023-05-17T10:29:05;19.10;66.50
38684;DHT22;24910;53.248;-6.134;2023-05-17T10:31:35;19.10;66.20
38684;DHT22;24910;53.248;-6.134;2023-05-17T10:34:04;19.10;66.50
38684;DHT22;24910;53.248;-6.134;2023-05-17T10:36:36;19.10;66.40
38684;DHT22;24910;53.248;-6.134;2023-05-17T10:39:06;19.10;66.20
38684;DHT22;24910;53.248;-6.134;2023-05-17T10:41:38;19.20;65.70
38684;DHT22;24910;53.248;-6.134;2023-05-17T10:44:12;19.00;65.30
38684;DHT22;24910;53.248;-6.134;2023-05-17T10:46:50;19.00;65.70
38684;DHT22;24910;53.248;-6.134;2023-05-17T10:49:21;19.00;65.70
38684;DHT22;24910;53.248;-6.134;2023-05-17T10:51:53;18.90;65.40
38684;DHT22;24910;53.248;-6.134;2023-05-17T10:54:33;18.80;66.40
38684;DHT22;24910;53.248;-6.134;2023-05-17T10:57:04;18.80;65.90
38684;DHT22;24910;53.248;-6.134;2023-05-17T10:59:56;18.90;66.10
38684;DHT22;24910;53.248;-6.134;2023-05-17T11:02:39;18.90;66.40
38684;DHT22;24910;53.248;-6.134;2023-05-17T11:05:22;19.00;66.90
38684;DHT22;24910;53.248;-6.134;2023-05-17T11:08:11;19.00;66.40
38684;DHT22;24910;53.248;-6.134;2023-05-17T11:11:08;19.00;66.20
38684;DHT22;24910;53.248;-6.134;2023-05-17T11:13:45;19.00;66.20
38684;DHT22;24910;53.248;-6.134;2023-05-17T11:16:15;18.90;66.50
38684;DHT22;24910;53.248;-6.134;2023-05-17T11:18:46;18.90;66.70
38684;DHT22;24910;53.248;-6.134;2023-05-17T11:21:15;18.70;66.80
38684;DHT22;24910;53.248;-6.134;2023-05-17T11:23:47;18.60;66.90
38684;DHT22;24910;53.248;-6.134;2023-05-17T11:26:21;18.50;67.00
38684;DHT22;24910;53.248;-6.134;2023-05-17T11:28:59;18.50;68.10
38684;DHT22;24910;53.248;-6.134;2023-05-17T11:31:29;18.40;67.30
38684;DHT22;24910;53.248;-6.134;2023-05-17T11:34:01;18.30;67.50
38684;DHT22;24910;53.248;-6.134;2023-05-17T11:36:32;18.10;67.70
38684;DHT22;24910;53.248;-6.134;2023-05-17T11:39:19;18.10;68.00
38684;DHT22;24910;53.248;-6.134;2023-05-17T11:41:50;18.00;68.30
38684;DHT22;24910;53.248;-6.134;2023-05-17T11:44:23;17.90;68.70
38684;DHT22;24910;53.248;-6.134;2023-05-17T11:47:01;17.80;69.20
38684;DHT22;24910;53.248;-6.134;2023-05-17T11:49:35;17.80;69.50
38684;DHT22;24910;53.248;-6.134;2023-05-17T11:52:05;17.70;69.80
38684;DHT22;24910;53.248;-6.134;2023-05-17T11:54:37;17.60;70.10
38684;DHT22;24910;53.248;-6.134;2023-05-17T11:57:07;17.60;70.40
38684;DHT22;24910;53.248;-6.134;2023-05-17T11:59:37;17.60;70.60
38684;DHT22;24910;53.248;-6.134;2023-05-17T12:02:07;17.50;70.70
38684;DHT22;24910;53.248;-6.134;2023-05-17T12:04:37;17.50;71.10
38684;DHT22;24910;53.248;-6.134;2023-05-17T12:07:08;17.50;71.40
38684;DHT22;24910;53.248;-6.134;2023-05-17T12:09:39;17.50;71.60
38684;DHT22;24910;53.248;-6.134;2023-05-17T12:12:08;17.50;71.70
38684;DHT22;24910;53.248;-6.134;2023-05-17T12:14:37;17.50;71.80
38684;DHT22;24910;53.248;-6.134;2023-05-17T12:17:07;17.60;72.10
38684;DHT22;24910;53.248;-6.134;2023-05-17T12:19:37;17.70;72.10
38684;DHT22;24910;53.248;-6.134;2023-05-17T12:22:06;17.70;71.60
38684;DHT22;24910;53.248;-6.134;2023-05-17T12:24:41;17.80;71.40
38684;DHT22;24910;53.248;-6.134;2023-05-17T12:27:10;18.00;71.20
38684;DHT22;24910;53.248;-6.134;2023-05-17T12:29:40;18.20;70.70
38684;DHT22;24910;53.248;-6.134;2023-05-17T12:32:09;18.30;70.10
38684;DHT22;24910;53.248;-6.134;2023-05-17T12:34:38;18.30;70.40
38684;DHT22;24910;53.248;-6.134;2023-05-17T12:37:09;18.30;69.10
38684;DHT22;24910;53.248;-6.134;2023-05-17T12:39:41;18.30;68.90
38684;DHT22;24910;53.248;-6.134;2023-05-17T12:42:10;18.30;69.50
38684;DHT22;24910;53.248;-6.134;2023-05-17T12:44:39;18.40;69.20
38684;DHT22;24910;53.248;-6.134;2023-05-17T12:47:09;18.60;69.30
38684;DHT22;24910;53.248;-6.134;2023-05-17T12:49:38;18.60;69.10
38684;DHT22;24910;53.248;-6.134;2023-05-17T12:52:09;18.60;68.70
38684;DHT22;24910;53.248;-6.134;2023-05-17T12:54:38;18.70;68.50
38684;DHT22;24910;53.248;-6.134;2023-05-17T12:57:13;18.70;68.60
38684;DHT22;24910;53.248;-6.134;2023-05-17T12:59:47;18.60;68.50
38684;DHT22;24910;53.248;-6.134;2023-05-17T13:02:18;18.70;68.60
38684;DHT22;24910;53.248;-6.134;2023-05-17T13:04:47;18.80;68.40
38684;DHT22;24910;53.248;-6.134;2023-05-17T13:07:21;18.90;68.40
38684;DHT22;24910;53.248;-6.134;2023-05-17T13:09:51;18.80;67.70
38684;DHT22;24910;53.248;-6.134;2023-05-17T13:12:23;18.70;67.90
38684;DHT22;24910;53.248;-6.134;2023-05-17T13:14:52;18.70;68.30
38684;DHT22;24910;53.248;-6.134;2023-05-17T13:17:24;18.70;68.50
38684;DHT22;24910;53.248;-6.134;2023-05-17T13:19:54;18.60;68.70
38684;DHT22;24910;53.248;-6.134;2023-05-17T13:22:25;18.60;68.80
38684;DHT22;24910;53.248;-6.134;2023-05-17T13:24:54;18.60;68.80
38684;DHT22;24910;53.248;-6.134;2023-05-17T13:27:24;18.50;68.80
38684;DHT22;24910;53.248;-6.134;2023-05-17T13:29:54;18.50;68.70
38684;DHT22;24910;53.248;-6.134;2023-05-17T13:32:23;18.40;68.70
38684;DHT22;24910;53.248;-6.134;2023-05-17T13:34:52;18.30;68.60
38684;DHT22;24910;53.248;-6.134;2023-05-17T13:37:21;18.30;68.90
38684;DHT22;24910;53.248;-6.134;2023-05-17T13:39:50;18.20;69.00
38684;DHT22;24910;53.248;-6.134;2023-05-17T13:42:21;18.20;69.10
38684;DHT22;24910;53.248;-6.134;2023-05-17T13:44:52;18.20;69.50
38684;DHT22;24910;53.248;-6.134;2023-05-17T13:47:21;18.10;69.50
38684;DHT22;24910;53.248;-6.134;2023-05-17T13:49:51;18.10;69.60
38684;DHT22;24910;53.248;-6.134;2023-05-17T13:52:20;18.10;69.70
38684;DHT22;24910;53.248;-6.134;2023-05-17T13:54:49;18.00;69.90
38684;DHT22;24910;53.248;-6.134;2023-05-17T13:57:18;18.00;70.20
38684;DHT22;24910;53.248;-6.134;2023-05-17T13:59:48;17.90;70.40
38684;DHT22;24910;53.248;-6.134;2023-05-17T14:02:18;17.90;70.60
38684;DHT22;24910;53.248;-6.134;2023-05-17T14:04:47;17.90;70.80
38684;DHT22;24910;53.248;-6.134;2023-05-17T14:07:17;17.90;71.10
38684;DHT22;24910;53.248;-6.134;2023-05-17T14:09:46;17.80;71.40
38684;DHT22;24910;53.248;-6.134;2023-05-17T14:12:15;17.80;71.70
38684;DHT22;24910;53.248;-6.134;2023-05-17T14:14:44;17.80;71.90
38684;DHT22;24910;53.248;-6.134;2023-05-17T14:17:13;17.90;72.10
38684;DHT22;24910;53.248;-6.134;2023-05-17T14:19:44;17.80;72.10
38684;DHT22;24910;53.248;-6.134;2023-05-17T14:22:14;17.70;72.30
38684;DHT22;24910;53.248;-6.134;2023-05-17T14:24:43;17.70;72.70
38684;DHT22;24910;53.248;-6.134;2023-05-17T14:27:12;17.60;72.90
38684;DHT22;24910;53.248;-6.134;2023-05-17T14:29:41;17.60;73.00
38684;DHT22;24910;53.248;-6.134;2023-05-17T14:32:10;17.60;73.10
38684;DHT22;24910;53.248;-6.134;2023-05-17T14:34:40;17.60;73.20
38684;DHT22;24910;53.248;-6.134;2023-05-17T14:37:11;17.50;73.10
38684;DHT22;24910;53.248;-6.134;2023-05-17T14:39:41;17.40;73.10
38684;DHT22;24910;53.248;-6.134;2023-05-17T14:42:25;17.40;73.10
38684;DHT22;24910;53.248;-6.134;2023-05-17T14:44:54;17.30;73.00
38684;DHT22;24910;53.248;-6.134;2023-05-17T14:47:23;17.30;73.00
38684;DHT22;24910;53.248;-6.134;2023-05-17T14:49:52;17.30;73.00
38684;DHT22;24910;53.248;-6.134;2023-05-17T14:52:25;17.30;73.00
38684;DHT22;24910;53.248;-6.134;2023-05-17T14:54:54;17.20;72.90
38684;DHT22;24910;53.248;-6.134;2023-05-17T14:57:23;17.20;73.00
38684;DHT22;24910;53.248;-6.134;2023-05-17T14:59:52;17.10;73.20
38684;DHT22;24910;53.248;-6.134;2023-05-17T15:02:21;17.20;73.40
38684;DHT22;24910;53.248;-6.134;2023-05-17T15:04:50;17.20;73.50
38684;DHT22;24910;53.248;-6.134;2023-05-17T15:07:20;17.20;73.50
38684;DHT22;24910;53.248;-6.134;2023-05-17T15:09:50;17.20;73.20
38684;DHT22;24910;53.248;-6.134;2023-05-17T15:12:20;17.20;73.00
38684;DHT22;24910;53.248;-6.134;2023-05-17T15:14:49;17.30;73.20
38684;DHT22;24910;53.248;-6.134;2023-05-17T15:17:19;17.40;73.20
38684;DHT22;24910;53.248;-6.134;2023-05-17T15:19:48;17.50;73.30
38684;DHT22;24910;53.248;-6.134;2023-05-17T15:22:18;17.60;73.20
38684;DHT22;24910;53.248;-6.134;2023-05-17T15:24:47;17.70;73.10
38684;DHT22;24910;53.248;-6.134;2023-05-17T15:27:18;17.60;73.00
38684;DHT22;24910;53.248;-6.134;2023-05-17T15:29:47;17.60;73.20
38684;DHT22;24910;53.248;-6.134;2023-05-17T15:32:16;17.50;73.10
38684;DHT22;24910;53.248;-6.134;2023-05-17T15:34:45;17.40;73.10
38684;DHT22;24910;53.248;-6.134;2023-05-17T15:37:14;17.40;73.60